sensor_id;sensor_type;location;lat;lon;timestamp;pressure;altitude;pressure_sealevel;temperature;humidity
42411;BME280;28056;51.112;0.984;2022-09-09T00:00:49;99492.99;;;14.35;74.14
42411;BME280;28056;51.112;0.984;2022-09-09T00:04:58;99491.27;;;14.09;75.13
42411;BME280;28056;51.112;0.984;2022-09-09T00:07:36;99491.64;;;14.03;74.43
42411;BME280;28056;51.112;0.984;2022-09-09T00:10:16;99492.45;;;14.78;73.15
42411;BME280;28056;51.112;0.984;2022-09-09T00:12:52;99479.65;;;15.24;70.83
42411;BME280;28056;51.112;0.984;2022-09-09T00:15:24;99479.28;;;15.70;69.63
42411;BME280;28056;51.112;0.984;2022-09-09T00:17:58;99473.36;;;14.56;72.15
42411;BME280;28056;51.112;0.984;2022-09-09T00:20:33;99478.30;;;14.95;71.68
42411;BME280;28056;51.112;0.984;2022-09-09T00:23:12;99466.55;;;15.21;71.60
42411;BME280;28056;51.112;0.984;2022-09-09T00:25:47;99468.77;;;15.79;69.48
42411;BME280;28056;51.112;0.984;2022-09-09T00:28:20;99462.35;;;14.78;71.91
42411;BME280;28056;51.112;0.984;2022-09-09T00:30:48;99455.14;;;14.64;73.17
42411;BME280;28056;51.112;0.984;2022-09-09T00:33:18;99456.35;;;15.04;72.07
42411;BME280;28056;51.112;0.984;2022-09-09T00:35:49;99457.26;;;16.18;68.09
42411;BME280;28056;51.112;0.984;2022-09-09T00:38:20;99454.62;;;15.97;69.31
42411;BME280;28056;51.112;0.984;2022-09-09T00:40:53;99453.45;;;15.99;68.78
42411;BME280;28056;51.112;0.984;2022-09-09T00:43:29;99453.22;;;15.57;69.91
42411;BME280;28056;51.112;0.984;2022-09-09T00:46:12;99450.13;;;15.43;69.83
42411;BME280;28056;51.112;0.984;2022-09-09T00:48:49;99446.24;;;15.18;72.42
42411;BME280;28056;51.112;0.984;2022-09-09T00:51:25;99452.92;;;13.21;76.58
42411;BME280;28056;51.112;0.984;2022-09-09T00:54:11;99443.87;;;14.39;74.72
42411;BME280;28056;51.112;0.984;2022-09-09T00:56:47;99437.16;;;15.37;72.01
42411;BME280;28056;51.112;0.984;2022-09-09T00:59:27;99434.85;;;15.78;70.25
42411;BME280;28056;51.112;0.984;2022-09-09T01:01:57;99429.35;;;15.30;70.42
42411;BME280;28056;51.112;0.984;2022-09-09T01:04:32;99424.42;;;14.83;71.86
42411;BME280;28056;51.112;0.984;2022-09-09T01:07:15;99422.83;;;14.67;70.41
42411;BME280;28056;51.112;0.984;2022-09-09T01:09:52;99415.15;;;15.49;70.51
42411;BME280;28056;51.112;0.984;2022-09-09T01:12:26;99411.86;;;15.50;69.59
42411;BME280;28056;51.112;0.984;2022-09-09T01:15:03;99411.49;;;14.71;69.79
42411;BME280;28056;51.112;0.984;2022-09-09T01:17:39;99408.60;;;15.12;69.78
42411;BME280;28056;51.112;0.984;2022-09-09T01:20:13;99405.29;;;14.91;71.02
42411;BME280;28056;51.112;0.984;2022-09-09T01:22:48;99397.59;;;15.79;67.73
42411;BME280;28056;51.112;0.984;2022-09-09T01:25:30;99395.34;;;15.01;69.51
42411;BME280;28056;51.112;0.984;2022-09-09T01:28:01;99402.22;;;15.16;69.58
42411;BME280;28056;51.112;0.984;2022-09-09T01:30:38;99405.81;;;14.67;69.47
42411;BME280;28056;51.112;0.984;2022-09-09T01:33:11;99391.52;;;14.28;72.83
42411;BME280;28056;51.112;0.984;2022-09-09T01:35:45;99386.60;;;15.29;69.53
42411;BME280;28056;51.112;0.984;2022-09-09T01:38:14;99394.79;;;14.88;70.43
42411;BME280;28056;51.112;0.984;2022-09-09T01:40:42;99395.62;;;15.35;68.62
42411;BME280;28056;51.112;0.984;2022-09-09T01:43:10;99391.16;;;15.16;69.56
42411;BME280;28056;51.112;0.984;2022-09-09T01:45:39;99380.57;;;15.06;70.02
42411;BME280;28056;51.112;0.984;2022-09-09T01:48:08;99376.45;;;15.53;66.90
42411;BME280;28056;51.112;0.984;2022-09-09T01:50:35;99368.35;;;14.78;68.78
42411;BME280;28056;51.112;0.984;2022-09-09T01:53:04;99354.59;;;14.71;67.70
42411;BME280;28056;51.112;0.984;2022-09-09T01:55:36;99347.80;;;14.03;70.69
42411;BME280;28056;51.112;0.984;2022-09-09T01:58:16;99344.04;;;14.00;70.64
42411;BME280;28056;51.112;0.984;2022-09-09T02:00:54;99354.18;;;14.80;67.54
42411;BME280;28056;51.112;0.984;2022-09-09T02:03:26;99360.06;;;14.63;67.58
42411;BME280;28056;51.112;0.984;2022-09-09T02:06:02;99367.37;;;15.53;66.28
42411;BME280;28056;51.112;0.984;2022-09-09T02:08:41;99365.41;;;15.67;65.46
42411;BME280;28056;51.112;0.984;2022-09-09T02:11:13;99358.46;;;15.78;64.47
42411;BME280;28056;51.112;0.984;2022-09-09T02:13:43;99350.74;;;15.72;65.08
42411;BME280;28056;51.112;0.984;2022-09-09T02:16:15;99344.07;;;15.87;65.14
42411;BME280;28056;51.112;0.984;2022-09-09T02:18:49;99345.15;;;15.90;65.02
42411;BME280;28056;51.112;0.984;2022-09-09T02:21:18;99349.84;;;15.08;66.25
42411;BME280;28056;51.112;0.984;2022-09-09T02:23:47;99354.77;;;15.90;64.93
42411;BME280;28056;51.112;0.984;2022-09-09T02:26:17;99356.16;;;15.89;65.51
42411;BME280;28056;51.112;0.984;2022-09-09T02:28:47;99351.30;;;16.28;64.34
42411;BME280;28056;51.112;0.984;2022-09-09T02:31:18;99353.68;;;15.98;65.92
42411;BME280;28056;51.112;0.984;2022-09-09T02:33:52;99359.69;;;15.80;65.56
42411;BME280;28056;51.112;0.984;2022-09-09T02:36:23;99354.04;;;16.32;63.85
42411;BME280;28056;51.112;0.984;2022-09-09T02:38:51;99356.10;;;15.82;64.66
42411;BME280;28056;51.112;0.984;2022-09-09T02:41:20;99350.69;;;14.91;67.84
42411;BME280;28056;51.112;0.984;2022-09-09T02:43:50;99358.57;;;15.59;67.36
42411;BME280;28056;51.112;0.984;2022-09-09T02:46:29;99362.10;;;14.85;69.40
42411;BME280;28056;51.112;0.984;2022-09-09T02:49:01;99363.11;;;15.50;67.36
42411;BME280;28056;51.112;0.984;2022-09-09T02:51:37;99367.00;;;16.29;66.08
42411;BME280;28056;51.112;0.984;2022-09-09T02:54:13;99367.08;;;15.84;64.96
42411;BME280;28056;51.112;0.984;2022-09-09T02:56:49;99371.85;;;16.46;63.96
42411;BME280;28056;51.112;0.984;2022-09-09T02:59:18;99372.78;;;16.22;63.75
42411;BME280;28056;51.112;0.984;2022-09-09T03:01:46;99363.19;;;17.18;61.91
42411;BME280;28056;51.112;0.984;2022-09-09T03:04:14;99364.33;;;17.69;60.34
42411;BME280;28056;51.112;0.984;2022-09-09T03:06:41;99362.53;;;17.84;59.62
42411;BME280;28056;51.112;0.984;2022-09-09T03:09:09;99356.57;;;16.48;61.81
42411;BME280;28056;51.112;0.984;2022-09-09T03:11:37;99357.09;;;17.98;59.25
42411;BME280;28056;51.112;0.984;2022-09-09T03:14:04;99360.66;;;17.58;58.83
42411;BME280;28056;51.112;0.984;2022-09-09T03:16:32;99359.99;;;17.76;58.22
42411;BME280;28056;51.112;0.984;2022-09-09T03:18:59;99358.15;;;17.83;58.26
42411;BME280;28056;51.112;0.984;2022-09-09T03:21:27;99360.13;;;16.96;60.01
42411;BME280;28056;51.112;0.984;2022-09-09T03:23:54;99357.94;;;17.91;58.03
42411;BME280;28056;51.112;0.984;2022-09-09T03:26:22;99361.96;;;18.04;58.10
42411;BME280;28056;51.112;0.984;2022-09-09T03:28:50;99368.81;;;17.09;59.96
42411;BME280;28056;51.112;0.984;2022-09-09T03:31:17;99366.80;;;17.08;61.28
42411;BME280;28056;51.112;0.984;2022-09-09T03:33:45;99372.20;;;15.67;63.15
42411;BME280;28056;51.112;0.984;2022-09-09T03:36:12;99365.33;;;16.40;62.49
42411;BME280;28056;51.112;0.984;2022-09-09T03:38:40;99363.69;;;16.06;63.22
42411;BME280;28056;51.112;0.984;2022-09-09T03:41:08;99362.09;;;15.53;64.26
42411;BME280;28056;51.112;0.984;2022-09-09T03:43:35;99364.51;;;14.26;68.23
42411;BME280;28056;51.112;0.984;2022-09-09T03:46:03;99361.98;;;14.19;70.01
42411;BME280;28056;51.112;0.984;2022-09-09T03:48:31;99355.98;;;15.08;68.59
42411;BME280;28056;51.112;0.984;2022-09-09T03:50:58;99353.79;;;14.46;68.76
42411;BME280;28056;51.112;0.984;2022-09-09T03:53:26;99350.24;;;14.75;69.09
42411;BME280;28056;51.112;0.984;2022-09-09T03:55:55;99351.61;;;14.23;68.65
42411;BME280;28056;51.112;0.984;2022-09-09T03:58:23;99354.43;;;14.61;68.45
42411;BME280;28056;51.112;0.984;2022-09-09T04:00:55;99356.46;;;14.74;67.95
42411;BME280;28056;51.112;0.984;2022-09-09T04:03:23;99353.85;;;14.19;68.73
42411;BME280;28056;51.112;0.984;2022-09-09T04:05:50;99353.64;;;14.31;69.21
42411;BME280;28056;51.112;0.984;2022-09-09T04:08:19;99352.72;;;13.86;69.51
42411;BME280;28056;51.112;0.984;2022-09-09T04:10:47;99354.12;;;13.85;70.74
42411;BME280;28056;51.112;0.984;2022-09-09T04:13:16;99355.55;;;12.97;74.57
42411;BME280;28056;51.112;0.984;2022-09-09T04:15:50;99356.21;;;14.61;69.80
42411;BME280;28056;51.112;0.984;2022-09-09T04:18:17;99355.05;;;13.68;71.62
42411;BME280;28056;51.112;0.984;2022-09-09T04:20:46;99353.55;;;13.69;71.38
42411;BME280;28056;51.112;0.984;2022-09-09T04:23:15;99355.97;;;13.17;73.60
42411;BME280;28056;51.112;0.984;2022-09-09T04:25:44;99357.14;;;13.51;72.96
42411;BME280;28056;51.112;0.984;2022-09-09T04:28:11;99355.21;;;12.69;75.23
42411;BME280;28056;51.112;0.984;2022-09-09T04:30:40;99351.45;;;12.40;77.38
42411;BME280;28056;51.112;0.984;2022-09-09T04:33:07;99352.24;;;13.24;73.97
42411;BME280;28056;51.112;0.984;2022-09-09T04:35:35;99358.69;;;13.29;73.97
42411;BME280;28056;51.112;0.984;2022-09-09T04:38:03;99359.17;;;14.53;71.14
42411;BME280;28056;51.112;0.984;2022-09-09T04:40:31;99364.87;;;12.54;75.74
42411;BME280;28056;51.112;0.984;2022-09-09T04:42:58;99365.44;;;12.91;76.93
42411;BME280;28056;51.112;0.984;2022-09-09T04:45:25;99367.01;;;12.47;76.85
42411;BME280;28056;51.112;0.984;2022-09-09T04:47:53;99373.22;;;11.91;79.38
42411;BME280;28056;51.112;0.984;2022-09-09T04:50:21;99375.26;;;13.10;76.21
42411;BME280;28056;51.112;0.984;2022-09-09T04:52:48;99376.48;;;14.09;71.80
42411;BME280;28056;51.112;0.984;2022-09-09T04:55:16;99379.34;;;13.66;72.75
42411;BME280;28056;51.112;0.984;2022-09-09T04:57:44;99379.96;;;12.30;76.20
42411;BME280;28056;51.112;0.984;2022-09-09T05:00:13;99382.11;;;12.54;76.42
42411;BME280;28056;51.112;0.984;2022-09-09T05:02:40;99383.69;;;11.96;78.46
42411;BME280;28056;51.112;0.984;2022-09-09T05:05:08;99384.06;;;11.69;80.07
42411;BME280;28056;51.112;0.984;2022-09-09T05:07:35;99391.86;;;11.49;81.87
42411;BME280;28056;51.112;0.984;2022-09-09T05:10:03;99397.52;;;11.23;84.49
42411;BME280;28056;51.112;0.984;2022-09-09T05:12:30;99404.66;;;11.63;85.11
42411;BME280;28056;51.112;0.984;2022-09-09T05:14:58;99402.27;;;12.35;82.77
42411;BME280;28056;51.112;0.984;2022-09-09T05:17:25;99402.89;;;12.85;81.60
42411;BME280;28056;51.112;0.984;2022-09-09T05:19:53;99407.10;;;12.62;81.07
42411;BME280;28056;51.112;0.984;2022-09-09T05:22:21;99410.85;;;12.07;81.92
42411;BME280;28056;51.112;0.984;2022-09-09T05:24:50;99410.99;;;12.90;81.18
42411;BME280;28056;51.112;0.984;2022-09-09T05:27:17;99411.07;;;11.90;81.96
42411;BME280;28056;51.112;0.984;2022-09-09T05:29:45;99419.39;;;11.58;85.69
42411;BME280;28056;51.112;0.984;2022-09-09T05:32:12;99416.52;;;12.39;84.34
42411;BME280;28056;51.112;0.984;2022-09-09T05:34:40;99424.72;;;12.03;85.61
42411;BME280;28056;51.112;0.984;2022-09-09T05:37:08;99419.10;;;12.15;84.40
42411;BME280;28056;51.112;0.984;2022-09-09T05:39:35;99420.93;;;11.87;83.73
42411;BME280;28056;51.112;0.984;2022-09-09T05:42:04;99425.36;;;12.08;84.28
42411;BME280;28056;51.112;0.984;2022-09-09T05:44:31;99433.76;;;11.55;84.87
42411;BME280;28056;51.112;0.984;2022-09-09T05:46:59;99436.19;;;11.33;87.03
42411;BME280;28056;51.112;0.984;2022-09-09T05:49:26;99436.78;;;11.81;86.34
42411;BME280;28056;51.112;0.984;2022-09-09T05:51:54;99438.82;;;11.86;85.08
42411;BME280;28056;51.112;0.984;2022-09-09T05:54:21;99433.23;;;12.77;83.35
42411;BME280;28056;51.112;0.984;2022-09-09T05:56:49;99436.20;;;12.59;80.42
42411;BME280;28056;51.112;0.984;2022-09-09T05:59:16;99435.71;;;12.42;81.24
42411;BME280;28056;51.112;0.984;2022-09-09T06:01:44;99435.41;;;13.12;80.17
42411;BME280;28056;51.112;0.984;2022-09-09T06:04:11;99436.71;;;13.83;76.44
42411;BME280;28056;51.112;0.984;2022-09-09T06:06:39;99439.88;;;14.28;73.26
42411;BME280;28056;51.112;0.984;2022-09-09T06:09:08;99441.00;;;15.00;71.33
42411;BME280;28056;51.112;0.984;2022-09-09T06:11:37;99443.54;;;15.40;69.20
42411;BME280;28056;51.112;0.984;2022-09-09T06:14:06;99442.10;;;14.78;70.88
42411;BME280;28056;51.112;0.984;2022-09-09T06:16:35;99443.92;;;13.77;73.50
42411;BME280;28056;51.112;0.984;2022-09-09T06:19:03;99445.18;;;13.41;76.52
42411;BME280;28056;51.112;0.984;2022-09-09T06:21:32;99450.60;;;13.66;75.55
42411;BME280;28056;51.112;0.984;2022-09-09T06:24:00;99451.39;;;12.40;80.39
42411;BME280;28056;51.112;0.984;2022-09-09T06:26:29;99447.68;;;15.21;73.08
42411;BME280;28056;51.112;0.984;2022-09-09T06:28:58;99456.53;;;12.64;79.61
42411;BME280;28056;51.112;0.984;2022-09-09T06:31:27;99454.32;;;13.23;79.16
42411;BME280;28056;51.112;0.984;2022-09-09T06:33:54;99455.25;;;13.83;77.02
42411;BME280;28056;51.112;0.984;2022-09-09T06:36:24;99462.59;;;12.81;78.12
42411;BME280;28056;51.112;0.984;2022-09-09T06:38:52;99471.05;;;13.10;81.44
42411;BME280;28056;51.112;0.984;2022-09-09T06:41:22;99479.26;;;12.22;83.51
42411;BME280;28056;51.112;0.984;2022-09-09T06:43:49;99487.95;;;12.26;86.24
42411;BME280;28056;51.112;0.984;2022-09-09T06:46:19;99489.75;;;12.70;81.99
42411;BME280;28056;51.112;0.984;2022-09-09T06:48:47;99492.70;;;12.48;84.06
42411;BME280;28056;51.112;0.984;2022-09-09T06:51:16;99500.13;;;12.02;86.61
42411;BME280;28056;51.112;0.984;2022-09-09T06:53:45;99499.79;;;13.34;81.96
42411;BME280;28056;51.112;0.984;2022-09-09T06:56:19;99505.04;;;11.64;87.29
42411;BME280;28056;51.112;0.984;2022-09-09T06:58:47;99506.11;;;12.38;87.41
42411;BME280;28056;51.112;0.984;2022-09-09T07:01:16;99510.68;;;12.43;85.85
42411;BME280;28056;51.112;0.984;2022-09-09T07:03:47;99513.20;;;11.92;89.05
42411;BME280;28056;51.112;0.984;2022-09-09T07:06:18;99515.36;;;11.65;90.34
42411;BME280;28056;51.112;0.984;2022-09-09T07:08:49;99518.54;;;11.77;91.58
42411;BME280;28056;51.112;0.984;2022-09-09T07:11:17;99520.80;;;11.90;91.58
42411;BME280;28056;51.112;0.984;2022-09-09T07:13:44;99516.46;;;11.94;92.52
42411;BME280;28056;51.112;0.984;2022-09-09T07:16:13;99511.06;;;12.07;94.33
42411;BME280;28056;51.112;0.984;2022-09-09T07:18:41;99511.77;;;11.60;96.48
42411;BME280;28056;51.112;0.984;2022-09-09T07:21:11;99512.15;;;11.88;97.45
42411;BME280;28056;51.112;0.984;2022-09-09T07:23:40;99517.81;;;11.62;97.58
42411;BME280;28056;51.112;0.984;2022-09-09T07:26:09;99523.15;;;11.56;98.73
42411;BME280;28056;51.112;0.984;2022-09-09T07:28:37;99529.86;;;11.70;99.13
42411;BME280;28056;51.112;0.984;2022-09-09T07:31:05;99531.96;;;11.88;99.71
42411;BME280;28056;51.112;0.984;2022-09-09T07:33:34;99538.06;;;11.88;99.31
42411;BME280;28056;51.112;0.984;2022-09-09T07:36:05;99539.78;;;11.92;98.98
42411;BME280;28056;51.112;0.984;2022-09-09T07:38:33;99539.43;;;12.00;98.46
42411;BME280;28056;51.112;0.984;2022-09-09T07:41:05;99544.48;;;12.10;97.58
42411;BME280;28056;51.112;0.984;2022-09-09T07:43:33;99548.61;;;12.20;96.99
42411;BME280;28056;51.112;0.984;2022-09-09T07:46:00;99558.46;;;12.13;96.49
42411;BME280;28056;51.112;0.984;2022-09-09T07:48:29;99561.86;;;12.14;96.45
42411;BME280;28056;51.112;0.984;2022-09-09T07:51:07;99568.34;;;12.35;95.73
42411;BME280;28056;51.112;0.984;2022-09-09T07:53:35;99568.31;;;12.00;95.66
42411;BME280;28056;51.112;0.984;2022-09-09T07:56:03;99571.30;;;12.44;94.27
42411;BME280;28056;51.112;0.984;2022-09-09T07:58:31;99569.20;;;12.20;95.59
42411;BME280;28056;51.112;0.984;2022-09-09T08:00:59;99573.38;;;12.73;93.69
42411;BME280;28056;51.112;0.984;2022-09-09T08:03:27;99575.07;;;12.83;91.39
42411;BME280;28056;51.112;0.984;2022-09-09T08:06:01;99576.91;;;12.67;93.51
42411;BME280;28056;51.112;0.984;2022-09-09T08:08:29;99577.49;;;12.76;93.76
42411;BME280;28056;51.112;0.984;2022-09-09T08:11:06;99581.14;;;12.73;94.46
42411;BME280;28056;51.112;0.984;2022-09-09T08:13:34;99579.04;;;12.69;95.10
42411;BME280;28056;51.112;0.984;2022-09-09T08:16:12;99581.16;;;12.80;93.37
42411;BME280;28056;51.112;0.984;2022-09-09T08:18:41;99580.66;;;12.40;93.24
42411;BME280;28056;51.112;0.984;2022-09-09T08:21:10;99584.19;;;12.75;94.08
42411;BME280;28056;51.112;0.984;2022-09-09T08:23:38;99587.01;;;12.77;94.01
42411;BME280;28056;51.112;0.984;2022-09-09T08:26:10;99587.72;;;12.77;92.66
42411;BME280;28056;51.112;0.984;2022-09-09T08:28:39;99590.95;;;12.80;93.07
42411;BME280;28056;51.112;0.984;2022-09-09T08:31:09;99594.02;;;12.95;90.99
42411;BME280;28056;51.112;0.984;2022-09-09T08:33:37;99601.16;;;13.08;92.49
42411;BME280;28056;51.112;0.984;2022-09-09T08:36:06;99605.25;;;12.67;91.09
42411;BME280;28056;51.112;0.984;2022-09-09T08:38:35;99605.77;;;12.78;91.48
42411;BME280;28056;51.112;0.984;2022-09-09T08:41:14;99608.47;;;12.87;91.05
42411;BME280;28056;51.112;0.984;2022-09-09T08:43:46;99614.67;;;12.77;89.72
42411;BME280;28056;51.112;0.984;2022-09-09T08:46:21;99616.04;;;13.10;90.47
42411;BME280;28056;51.112;0.984;2022-09-09T08:48:55;99615.18;;;13.47;89.55
42411;BME280;28056;51.112;0.984;2022-09-09T08:51:25;99622.44;;;13.56;86.97
42411;BME280;28056;51.112;0.984;2022-09-09T08:53:54;99621.47;;;14.04;81.86
42411;BME280;28056;51.112;0.984;2022-09-09T08:56:26;99627.19;;;13.49;82.94
42411;BME280;28056;51.112;0.984;2022-09-09T08:58:55;99630.41;;;13.11;83.02
42411;BME280;28056;51.112;0.984;2022-09-09T09:01:40;99634.09;;;13.04;82.69
42411;BME280;28056;51.112;0.984;2022-09-09T09:05:24;99638.69;;;13.37;84.19
42411;BME280;28056;51.112;0.984;2022-09-09T09:08:02;99647.45;;;13.68;83.75
42411;BME280;28056;51.112;0.984;2022-09-09T09:10:41;99656.18;;;13.24;81.30
42411;BME280;28056;51.112;0.984;2022-09-09T09:13:14;99653.95;;;13.92;80.81
42411;BME280;28056;51.112;0.984;2022-09-09T09:15:45;99660.46;;;13.36;81.86
42411;BME280;28056;51.112;0.984;2022-09-09T09:18:19;99663.73;;;13.26;81.05
42411;BME280;28056;51.112;0.984;2022-09-09T09:20:53;99668.95;;;13.31;79.98
42411;BME280;28056;51.112;0.984;2022-09-09T09:23:26;99671.86;;;13.50;81.61
42411;BME280;28056;51.112;0.984;2022-09-09T09:25:59;99684.12;;;13.76;80.59
42411;BME280;28056;51.112;0.984;2022-09-09T09:28:30;99683.59;;;13.63;80.67
42411;BME280;28056;51.112;0.984;2022-09-09T09:31:03;99679.62;;;14.06;79.81
42411;BME280;28056;51.112;0.984;2022-09-09T09:33:34;99685.26;;;13.89;77.67
42411;BME280;28056;51.112;0.984;2022-09-09T09:36:04;99691.08;;;13.94;77.48
42411;BME280;28056;51.112;0.984;2022-09-09T09:38:31;99696.68;;;13.89;76.66
42411;BME280;28056;51.112;0.984;2022-09-09T09:40:59;99698.01;;;13.68;78.60
42411;BME280;28056;51.112;0.984;2022-09-09T09:43:28;99699.49;;;13.80;79.65
42411;BME280;28056;51.112;0.984;2022-09-09T09:45:56;99698.15;;;14.54;80.39
42411;BME280;28056;51.112;0.984;2022-09-09T09:48:24;99701.15;;;14.93;77.77
42411;BME280;28056;51.112;0.984;2022-09-09T09:50:54;99700.38;;;14.31;73.82
42411;BME280;28056;51.112;0.984;2022-09-09T09:53:25;99703.03;;;14.65;73.03
42411;BME280;28056;51.112;0.984;2022-09-09T09:55:56;99704.72;;;14.96;72.01
42411;BME280;28056;51.112;0.984;2022-09-09T09:58:25;99716.68;;;13.68;74.67
42411;BME280;28056;51.112;0.984;2022-09-09T10:00:54;99717.17;;;14.28;73.31
42411;BME280;28056;51.112;0.984;2022-09-09T10:03:25;99719.78;;;14.04;74.16
42411;BME280;28056;51.112;0.984;2022-09-09T10:05:53;99716.87;;;13.86;75.91
42411;BME280;28056;51.112;0.984;2022-09-09T10:08:21;99717.18;;;14.45;74.27
42411;BME280;28056;51.112;0.984;2022-09-09T10:10:57;99727.43;;;14.04;75.72
42411;BME280;28056;51.112;0.984;2022-09-09T10:13:34;99723.50;;;13.69;74.37
42411;BME280;28056;51.112;0.984;2022-09-09T10:16:17;99729.28;;;13.92;72.79
42411;BME280;28056;51.112;0.984;2022-09-09T10:18:58;99735.25;;;14.14;71.07
42411;BME280;28056;51.112;0.984;2022-09-09T10:21:38;99734.10;;;14.68;71.28
42411;BME280;28056;51.112;0.984;2022-09-09T10:24:24;99730.88;;;14.93;69.22
42411;BME280;28056;51.112;0.984;2022-09-09T10:27:00;99735.59;;;14.99;71.04
42411;BME280;28056;51.112;0.984;2022-09-09T10:29:42;99738.36;;;14.42;69.37
42411;BME280;28056;51.112;0.984;2022-09-09T10:32:32;99741.88;;;14.32;69.58
42411;BME280;28056;51.112;0.984;2022-09-09T10:35:09;99747.02;;;13.68;71.14
42411;BME280;28056;51.112;0.984;2022-09-09T10:37:46;99757.13;;;13.95;72.65
42411;BME280;28056;51.112;0.984;2022-09-09T10:40:26;99755.22;;;13.51;74.73
42411;BME280;28056;51.112;0.984;2022-09-09T10:42:58;99762.02;;;14.30;73.94
42411;BME280;28056;51.112;0.984;2022-09-09T10:45:31;99766.21;;;13.66;73.40
42411;BME280;28056;51.112;0.984;2022-09-09T10:48:16;99768.66;;;13.72;74.21
42411;BME280;28056;51.112;0.984;2022-09-09T10:50:54;99772.39;;;14.58;72.13
42411;BME280;28056;51.112;0.984;2022-09-09T10:53:35;99773.42;;;14.30;73.49
42411;BME280;28056;51.112;0.984;2022-09-09T10:56:07;99774.29;;;13.90;73.98
42411;BME280;28056;51.112;0.984;2022-09-09T10:58:40;99770.37;;;14.99;72.50
42411;BME280;28056;51.112;0.984;2022-09-09T11:01:15;99769.51;;;15.08;70.45
42411;BME280;28056;51.112;0.984;2022-09-09T11:03:49;99772.44;;;14.88;71.12
42411;BME280;28056;51.112;0.984;2022-09-09T11:06:22;99776.94;;;14.68;71.25
42411;BME280;28056;51.112;0.984;2022-09-09T11:08:53;99781.92;;;15.35;70.00
42411;BME280;28056;51.112;0.984;2022-09-09T11:11:25;99787.03;;;14.50;71.55
42411;BME280;28056;51.112;0.984;2022-09-09T11:13:58;99792.00;;;13.93;71.33
42411;BME280;28056;51.112;0.984;2022-09-09T11:16:30;99793.48;;;13.98;72.24
42411;BME280;28056;51.112;0.984;2022-09-09T11:19:04;99803.35;;;14.39;71.84
42411;BME280;28056;51.112;0.984;2022-09-09T11:21:42;99803.53;;;14.56;70.54
42411;BME280;28056;51.112;0.984;2022-09-09T11:24:15;99808.63;;;14.36;71.46
42411;BME280;28056;51.112;0.984;2022-09-09T11:26:50;99808.65;;;14.50;71.92
42411;BME280;28056;51.112;0.984;2022-09-09T11:29:44;99814.17;;;14.71;71.84
42411;BME280;28056;51.112;0.984;2022-09-09T11:32:31;99816.39;;;14.24;70.70
42411;BME280;28056;51.112;0.984;2022-09-09T11:35:16;99820.19;;;14.03;72.26
42411;BME280;28056;51.112;0.984;2022-09-09T11:38:53;99814.88;;;13.25;72.05
42411;BME280;28056;51.112;0.984;2022-09-09T11:41:34;99818.06;;;13.85;73.14
42411;BME280;28056;51.112;0.984;2022-09-09T11:44:10;99822.61;;;14.09;73.12
42411;BME280;28056;51.112;0.984;2022-09-09T11:46:39;99823.95;;;14.49;72.77
42411;BME280;28056;51.112;0.984;2022-09-09T11:49:27;99827.19;;;14.05;72.59
42411;BME280;28056;51.112;0.984;2022-09-09T11:51:54;99823.05;;;14.63;72.01
42411;BME280;28056;51.112;0.984;2022-09-09T11:54:29;99827.32;;;14.70;72.65
42411;BME280;28056;51.112;0.984;2022-09-09T11:56:57;99827.96;;;14.66;71.19
42411;BME280;28056;51.112;0.984;2022-09-09T11:59:26;99827.74;;;14.43;70.47
42411;BME280;28056;51.112;0.984;2022-09-09T12:01:56;99828.90;;;14.41;70.98
42411;BME280;28056;51.112;0.984;2022-09-09T12:04:36;99829.52;;;14.92;71.31
42411;BME280;28056;51.112;0.984;2022-09-09T12:07:21;99832.55;;;14.52;70.10
42411;BME280;28056;51.112;0.984;2022-09-09T12:09:55;99832.86;;;14.42;72.15
42411;BME280;28056;51.112;0.984;2022-09-09T12:12:29;99833.88;;;14.42;71.49
42411;BME280;28056;51.112;0.984;2022-09-09T12:15:00;99830.09;;;15.08;70.68
42411;BME280;28056;51.112;0.984;2022-09-09T12:17:29;99835.87;;;14.87;70.95
42411;BME280;28056;51.112;0.984;2022-09-09T12:20:03;99835.85;;;14.37;71.95
42411;BME280;28056;51.112;0.984;2022-09-09T12:22:40;99838.65;;;14.13;71.83
42411;BME280;28056;51.112;0.984;2022-09-09T12:25:18;99836.27;;;14.25;72.95
42411;BME280;28056;51.112;0.984;2022-09-09T12:27:59;99836.59;;;14.05;72.36
42411;BME280;28056;51.112;0.984;2022-09-09T12:30:32;99836.40;;;14.92;71.81
42411;BME280;28056;51.112;0.984;2022-09-09T12:33:02;99834.50;;;13.97;71.82
42411;BME280;28056;51.112;0.984;2022-09-09T12:35:36;99838.24;;;14.13;73.54
42411;BME280;28056;51.112;0.984;2022-09-09T12:38:05;99838.29;;;14.25;72.41
42411;BME280;28056;51.112;0.984;2022-09-09T12:40:34;99840.70;;;14.80;71.14
42411;BME280;28056;51.112;0.984;2022-09-09T12:43:02;99833.24;;;15.68;70.11
42411;BME280;28056;51.112;0.984;2022-09-09T12:45:31;99830.83;;;16.52;65.62
42411;BME280;28056;51.112;0.984;2022-09-09T12:48:01;99833.27;;;17.61;63.64
42411;BME280;28056;51.112;0.984;2022-09-09T12:50:32;99832.05;;;17.08;60.54
42411;BME280;28056;51.112;0.984;2022-09-09T12:53:03;99833.54;;;15.75;65.70
42411;BME280;28056;51.112;0.984;2022-09-09T12:55:37;99838.04;;;17.08;63.22
42411;BME280;28056;51.112;0.984;2022-09-09T12:58:06;99841.10;;;16.19;63.19
42411;BME280;28056;51.112;0.984;2022-09-09T13:00:34;99835.66;;;15.81;66.03
42411;BME280;28056;51.112;0.984;2022-09-09T13:03:13;99841.78;;;16.13;65.50
42411;BME280;28056;51.112;0.984;2022-09-09T13:05:44;99841.33;;;15.96;65.49
42411;BME280;28056;51.112;0.984;2022-09-09T13:08:13;99843.63;;;15.15;66.34
42411;BME280;28056;51.112;0.984;2022-09-09T13:10:46;99843.80;;;14.64;68.30
42411;BME280;28056;51.112;0.984;2022-09-09T13:13:16;99849.24;;;14.63;69.15
42411;BME280;28056;51.112;0.984;2022-09-09T13:15:50;99849.73;;;14.21;70.06
42411;BME280;28056;51.112;0.984;2022-09-09T13:18:21;99849.08;;;14.35;71.61
42411;BME280;28056;51.112;0.984;2022-09-09T13:20:51;99851.72;;;14.40;72.77
42411;BME280;28056;51.112;0.984;2022-09-09T13:23:20;99852.73;;;14.51;72.64
42411;BME280;28056;51.112;0.984;2022-09-09T13:25:57;99851.35;;;14.68;73.34